Time;durP1;ratioP1;P1;durP2;ratioP2;P2;SDS_P1;SDS_P2;PMS_P1;PMS_P2;Temp;Humidity;BMP_temperature;BMP_pressure;BME280_temperature;BME280_humidity;BME280_pressure;Samples;Min_cycle;Max_cycle;Signal;HPM_P1;HPM_P2
2024/01/14 05:00:21;;;;;;;3.90;1.02;;;2.70;99.90;;;;;;5865947;23;20233;-69
2024/01/14 05:02:48;;;;;;;1.55;0.47;;;2.80;99.90;;;;;;4906575;29;20207;-69
2024/01/14 05:05:15;;;;;;;1.40;1.40;;;2.80;99.90;;;;;;4914992;29;20243;-69
2024/01/14 05:07:42;;;;;;;5.65;0.80;;;2.80;99.90;;;;;;4916362;29;20706;-70
2024/01/14 05:10:10;;;;;;;12.18;1.00;;;2.80;99.90;;;;;;4901001;29;20585;-71
2024/01/14 05:12:37;;;;;;;1.70;0.60;;;2.80;99.90;;;;;;4919263;29;20213;-69
2024/01/14 05:15:04;;;;;;;0.32;0.32;;;2.80;99.90;;;;;;4918489;29;20219;-69
2024/01/14 05:17:33;;;;;;;0.93;0.35;;;2.80;99.90;;;;;;4918626;29;20211;-70
2024/01/14 05:20:00;;;;;;;1.05;0.63;;;2.80;99.90;;;;;;4926217;29;20238;-70
2024/01/14 05:22:27;;;;;;;0.65;0.65;;;2.80;99.90;;;;;;4918141;29;20637;-70
2024/01/14 05:24:54;;;;;;;2.30;1.00;;;2.80;99.90;;;;;;4920368;29;20208;-70
2024/01/14 05:27:21;;;;;;;2.05;0.93;;;2.80;99.90;;;;;;4923635;29;20330;-70
2024/01/14 05:29:48;;;;;;;0.22;0.22;;;2.80;99.90;;;;;;4931607;29;20219;-71
2024/01/14 05:32:16;;;;;;;0.30;0.30;;;2.80;99.90;;;;;;4925454;29;20232;-69
2024/01/14 05:34:45;;;;;;;0.88;0.40;;;2.80;99.90;;;;;;4920093;29;20218;-70
2024/01/14 05:37:12;;;;;;;1.00;0.63;;;2.80;99.90;;;;;;4917902;29;20668;-70
2024/01/14 05:39:39;;;;;;;3.80;1.52;;;2.80;99.90;;;;;;4918070;29;20218;-70
2024/01/14 05:42:06;;;;;;;1.55;0.98;;;2.80;99.90;;;;;;4921977;29;20240;-71
2024/01/14 05:44:33;;;;;;;7.55;0.80;;;2.80;99.90;;;;;;4921711;29;20587;-71
2024/01/14 05:47:00;;;;;;;0.57;0.57;;;2.80;99.90;;;;;;4917073;29;20234;-71
2024/01/14 05:49:27;;;;;;;2.83;0.70;;;2.70;99.90;;;;;;4916696;29;20204;-71
2024/01/14 05:51:55;;;;;;;0.57;0.50;;;2.70;99.90;;;;;;4920209;29;20247;-71
2024/01/14 05:54:21;;;;;;;2.60;0.40;;;2.70;99.90;;;;;;4920137;29;20689;-71
2024/01/14 05:56:48;;;;;;;1.55;0.93;;;2.70;99.90;;;;;;4920470;29;20232;-71
2024/01/14 05:59:15;;;;;;;1.27;0.70;;;2.70;99.90;;;;;;4922267;29;20208;-71
2024/01/14 06:01:42;;;;;;;11.45;1.23;;;2.70;99.90;;;;;;4920299;29;20741;-71
2024/01/14 06:04:09;;;;;;;2.13;1.15;;;2.70;99.90;;;;;;4920698;29;20303;-72
2024/01/14 06:06:35;;;;;;;3.45;0.40;;;2.70;99.90;;;;;;4924235;29;20207;-72
2024/01/14 06:09:04;;;;;;;1.92;0.35;;;2.70;99.90;;;;;;4921023;29;20239;-71
2024/01/14 06:11:31;;;;;;;3.22;0.88;;;2.80;99.90;;;;;;4924578;29;20636;-71
2024/01/14 06:13:58;;;;;;;0.85;0.75;;;2.80;99.90;;;;;;4921285;29;20206;-72
2024/01/14 06:16:24;;;;;;;0.85;0.63;;;2.80;99.90;;;;;;4928258;29;20298;-71
2024/01/14 06:18:51;;;;;;;0.90;0.70;;;2.80;99.90;;;;;;4917186;29;20217;-71
2024/01/14 06:21:18;;;;;;;3.03;0.85;;;2.80;99.90;;;;;;4920252;29;20227;-71
2024/01/14 06:23:45;;;;;;;8.55;1.05;;;2.80;99.90;;;;;;4921790;29;20700;-71
2024/01/14 06:26:17;;;;;;;8.57;0.90;;;2.80;99.90;;;;;;4917879;29;20219;-70
2024/01/14 06:28:44;;;;;;;16.20;1.52;;;2.80;99.90;;;;;;4923299;29;20232;-70
2024/01/14 06:31:11;;;;;;;3.05;1.05;;;2.80;99.90;;;;;;4924865;29;20246;-71
2024/01/14 06:33:38;;;;;;;7.50;1.60;;;2.80;99.90;;;;;;4916262;29;20651;-71
2024/01/14 06:36:06;;;;;;;0.40;0.40;;;2.80;99.90;;;;;;4923094;29;20583;-70
2024/01/14 06:38:33;;;;;;;0.88;0.85;;;2.80;99.90;;;;;;4921796;29;20267;-70
2024/01/14 06:41:00;;;;;;;3.38;1.55;;;2.80;99.90;;;;;;4919294;29;20397;-73
2024/01/14 06:43:28;;;;;;;5.55;1.15;;;2.80;99.90;;;;;;4918477;29;20299;-71
2024/01/14 06:45:55;;;;;;;3.70;1.38;;;2.80;99.90;;;;;;4919635;29;20218;-70
2024/01/14 06:48:22;;;;;;;3.60;0.90;;;2.80;99.90;;;;;;4917248;29;20228;-70
2024/01/14 06:50:49;;;;;;;9.20;1.35;;;2.80;99.90;;;;;;4921852;29;20237;-70
2024/01/14 06:53:15;;;;;;;9.20;1.38;;;2.80;99.90;;;;;;4919285;29;20216;-70
2024/01/14 06:55:42;;;;;;;6.28;1.35;;;2.80;99.90;;;;;;4918851;29;20211;-70
2024/01/14 06:58:09;;;;;;;1.15;1.15;;;2.80;99.90;;;;;;4916773;29;20204;-70
2024/01/14 07:00:37;;;;;;;6.97;2.80;;;2.80;99.90;;;;;;4920438;29;20237;-71
2024/01/14 07:03:04;;;;;;;0.80;0.80;;;2.80;99.90;;;;;;4919172;29;20313;-69
2024/01/14 07:05:31;;;;;;;2.63;1.05;;;2.80;99.90;;;;;;4917030;29;20299;-70
2024/01/14 07:07:58;;;;;;;1.13;0.98;;;2.80;99.90;;;;;;4917334;29;20269;-69
2024/01/14 07:10:25;;;;;;;1.25;1.15;;;2.80;99.90;;;;;;4915981;29;20209;-68
2024/01/14 07:12:52;;;;;;;5.40;0.50;;;2.70;99.90;;;;;;4917734;29;20219;-70
2024/01/14 07:15:19;;;;;;;2.72;1.00;;;2.70;99.90;;;;;;4918690;29;20228;-69
2024/01/14 07:17:48;;;;;;;1.10;0.57;;;2.70;99.90;;;;;;4921479;29;20215;-70
2024/01/14 07:20:15;;;;;;;1.35;1.25;;;2.70;99.90;;;;;;4918105;29;20209;-70
2024/01/14 07:22:42;;;;;;;2.97;0.60;;;2.70;99.90;;;;;;4919072;29;20212;-70
2024/01/14 07:25:10;;;;;;;3.13;0.57;;;2.70;99.90;;;;;;4921212;29;20218;-70
2024/01/14 07:27:37;;;;;;;11.35;1.50;;;2.70;99.90;;;;;;4918294;29;20224;-70
2024/01/14 07:30:06;;;;;;;14.40;1.67;;;2.70;99.90;;;;;;4930082;29;20243;-70
2024/01/14 07:32:33;;;;;;;1.25;1.15;;;2.70;99.90;;;;;;4924695;29;20271;-70
2024/01/14 07:35:01;;;;;;;1.50;0.40;;;2.70;99.90;;;;;;4924788;29;20246;-69
2024/01/14 07:37:30;;;;;;;0.30;0.30;;;2.80;99.90;;;;;;4921507;29;20204;-70
2024/01/14 07:39:57;;;;;;;2.83;0.60;;;2.80;99.90;;;;;;4921913;29;20224;-72
2024/01/14 07:42:24;;;;;;;7.53;1.90;;;2.70;99.90;;;;;;4927825;29;20235;-70
2024/01/14 07:44:51;;;;;;;4.97;1.40;;;2.70;99.90;;;;;;4924849;29;20238;-70
2024/01/14 07:47:18;;;;;;;1.20;1.20;;;2.70;99.90;;;;;;4926442;29;20226;-70
2024/01/14 07:49:48;;;;;;;3.15;0.95;;;2.70;99.90;;;;;;4925995;29;20211;-70
2024/01/14 07:52:16;;;;;;;1.35;1.25;;;2.80;99.90;;;;;;4929167;29;20300;-71
2024/01/14 07:54:45;;;;;;;5.07;1.00;;;2.70;99.90;;;;;;4921048;29;20259;-72
2024/01/14 07:57:12;;;;;;;0.73;0.73;;;2.80;99.90;;;;;;4926673;29;20520;-70
2024/01/14 07:59:39;;;;;;;1.10;1.10;;;2.80;99.90;;;;;;4929470;29;20691;-71
2024/01/14 08:02:06;;;;;;;0.55;0.55;;;2.80;99.90;;;;;;4923402;29;20720;-71
2024/01/14 08:04:33;;;;;;;0.90;0.90;;;2.80;99.90;;;;;;4925101;29;20249;-70
2024/01/14 08:07:00;;;;;;;1.15;1.15;;;2.90;99.90;;;;;;4924870;29;20757;-70
2024/01/14 08:09:28;;;;;;;3.88;2.55;;;2.90;99.90;;;;;;4920915;29;20224;-70
2024/01/14 08:11:56;;;;;;;8.43;3.65;;;2.90;99.90;;;;;;4922328;29;20231;-70
2024/01/14 08:14:24;;;;;;;13.00;2.85;;;2.90;99.90;;;;;;4919859;29;20218;-71
2024/01/14 08:16:50;;;;;;;2.63;0.80;;;3.00;99.90;;;;;;4925183;29;20222;-70
2024/01/14 08:19:17;;;;;;;1.70;1.60;;;3.00;99.90;;;;;;4924498;29;20212;-70
2024/01/14 08:21:44;;;;;;;1.10;1.10;;;3.00;99.90;;;;;;4923776;29;20233;-70
2024/01/14 08:24:10;;;;;;;4.53;0.90;;;3.00;99.90;;;;;;4925102;29;20228;-70
2024/01/14 08:26:44;;;;;;;4.78;1.30;;;3.10;99.90;;;;;;4916448;29;20218;-70
2024/01/14 08:29:12;;;;;;;6.63;2.38;;;3.10;99.90;;;;;;4919049;29;20241;-69
2024/01/14 08:31:39;;;;;;;10.98;6.72;;;3.10;99.90;;;;;;4924760;29;20739;-71
2024/01/14 08:34:06;;;;;;;1.70;0.75;;;3.10;99.90;;;;;;4924807;29;20219;-71
2024/01/14 08:36:33;;;;;;;1.02;0.65;;;3.10;99.90;;;;;;4918067;29;20215;-70
2024/01/14 08:38:59;;;;;;;1.00;0.80;;;3.10;99.90;;;;;;4922907;29;20584;-70
2024/01/14 08:41:26;;;;;;;1.77;1.38;;;3.10;99.90;;;;;;4919797;29;20229;-71
2024/01/14 08:43:56;;;;;;;2.33;1.15;;;3.10;99.90;;;;;;4919852;29;20216;-70
2024/01/14 08:46:24;;;;;;;0.90;0.90;;;3.10;99.90;;;;;;4928177;29;20243;-71
2024/01/14 08:48:50;;;;;;;0.85;0.75;;;3.10;99.90;;;;;;4919562;29;20234;-71
2024/01/14 08:51:17;;;;;;;1.20;0.60;;;3.10;99.90;;;;;;4933810;29;20324;-71
2024/01/14 08:53:44;;;;;;;1.38;1.38;;;3.10;99.90;;;;;;4921275;29;20213;-71
2024/01/14 08:56:11;;;;;;;0.60;0.60;;;3.00;99.90;;;;;;4920849;29;20209;-71
2024/01/14 08:58:37;;;;;;;1.55;0.88;;;3.10;99.90;;;;;;4921503;29;20212;-71
2024/01/14 09:01:06;;;;;;;0.80;0.75;;;3.10;99.90;;;;;;4931190;29;20254;-71
2024/01/14 09:03:32;;;;;;;5.68;1.38;;;3.10;99.90;;;;;;4921267;29;20212;-69
2024/01/14 09:05:59;;;;;;;1.05;0.75;;;3.10;99.90;;;;;;4929800;29;20211;-71
2024/01/14 09:08:26;;;;;;;3.45;3.05;;;3.10;99.90;;;;;;4919168;29;20261;-71
2024/01/14 09:10:53;;;;;;;2.00;0.80;;;3.20;99.90;;;;;;4917665;29;20232;-70
2024/01/14 09:13:19;;;;;;;0.60;0.60;;;3.20;99.90;;;;;;4916847;29;20212;-70
2024/01/14 09:15:46;;;;;;;6.38;0.70;;;3.30;99.90;;;;;;4917524;29;20217;-70
2024/01/14 09:18:14;;;;;;;1.75;0.77;;;3.30;99.90;;;;;;4917529;29;20205;-71
2024/01/14 09:20:41;;;;;;;0.60;0.60;;;3.30;99.90;;;;;;4917416;29;20237;-70
2024/01/14 09:23:08;;;;;;;1.58;0.90;;;3.30;99.90;;;;;;4917579;29;20292;-70
2024/01/14 09:25:35;;;;;;;6.25;1.83;;;3.40;99.90;;;;;;4917820;29;20213;-71
2024/01/14 09:28:02;;;;;;;0.70;0.70;;;3.40;99.90;;;;;;4918367;29;20718;-71
2024/01/14 09:30:28;;;;;;;1.05;1.05;;;3.40;99.90;;;;;;4916831;29;20217;-70
2024/01/14 09:32:55;;;;;;;2.70;1.05;;;3.40;99.90;;;;;;4919351;29;20576;-71
2024/01/14 09:35:23;;;;;;;4.72;0.63;;;3.50;99.90;;;;;;4922472;29;20232;-71
2024/01/14 09:37:51;;;;;;;1.10;1.10;;;3.50;99.90;;;;;;4924529;29;20218;-71
2024/01/14 09:40:18;;;;;;;1.30;0.93;;;3.50;99.90;;;;;;4923446;29;20676;-70
2024/01/14 09:42:45;;;;;;;0.75;0.75;;;3.50;99.90;;;;;;4916734;29;20228;-70
2024/01/14 09:45:13;;;;;;;1.38;1.33;;;3.60;99.90;;;;;;4916022;29;20587;-71
2024/01/14 09:47:42;;;;;;;1.45;1.30;;;3.60;99.90;;;;;;4916795;29;20213;-70
2024/01/14 09:50:10;;;;;;;5.10;1.88;;;3.70;99.90;;;;;;4923849;29;20234;-71
2024/01/14 09:52:41;;;;;;;2.95;1.58;;;3.70;99.90;;;;;;4925489;29;20237;-71
2024/01/14 09:55:10;;;;;;;1.20;1.05;;;3.60;99.90;;;;;;4922360;29;20209;-70
2024/01/14 09:57:39;;;;;;;1.20;1.20;;;3.60;99.90;;;;;;4916247;29;20312;-69
2024/01/14 10:00:08;;;;;;;0.93;0.93;;;3.60;99.90;;;;;;4916857;29;20210;-69
2024/01/14 10:02:35;;;;;;;2.88;1.70;;;3.60;99.90;;;;;;4918402;29;20263;-69
2024/01/14 10:05:03;;;;;;;4.20;1.67;;;3.60;99.90;;;;;;4920541;29;20210;-71
2024/01/14 10:07:30;;;;;;;1.45;1.42;;;3.70;99.90;;;;;;4917083;29;20212;-69
2024/01/14 10:09:58;;;;;;;0.95;0.95;;;3.70;99.90;;;;;;4917027;29;20606;-70
2024/01/14 10:12:26;;;;;;;7.50;2.03;;;3.70;99.90;;;;;;4919625;29;20294;-70
2024/01/14 10:15:00;;;;;;;2.00;1.27;;;3.70;99.90;;;;;;4930556;29;20231;-70
2024/01/14 10:17:29;;;;;;;5.88;1.67;;;3.70;99.90;;;;;;4920188;29;20209;-71
2024/01/14 10:19:57;;;;;;;1.73;1.42;;;3.70;99.90;;;;;;4919948;29;20284;-69
2024/01/14 10:22:26;;;;;;;4.75;1.52;;;3.70;99.90;;;;;;4917955;29;20719;-69
2024/01/14 10:24:54;;;;;;;2.20;1.55;;;3.70;99.90;;;;;;4918010;29;20217;-69
2024/01/14 10:27:23;;;;;;;5.57;4.30;;;3.60;99.90;;;;;;4923667;29;20217;-69
2024/01/14 10:29:51;;;;;;;5.55;2.08;;;3.60;99.90;;;;;;4931324;29;20266;-70
2024/01/14 10:32:19;;;;;;;1.98;1.45;;;3.60;99.90;;;;;;4919952;29;20621;-70
2024/01/14 10:34:46;;;;;;;2.78;2.55;;;3.50;99.90;;;;;;4917335;29;20223;-70
2024/01/14 10:37:13;;;;;;;2.10;1.80;;;3.50;99.90;;;;;;4920392;29;20787;-70
2024/01/14 10:39:41;;;;;;;2.47;2.28;;;3.50;99.90;;;;;;4927372;29;20628;-70
2024/01/14 10:42:08;;;;;;;3.58;2.65;;;3.50;99.90;;;;;;4923466;29;20233;-70
2024/01/14 10:44:37;;;;;;;5.40;3.35;;;3.60;99.90;;;;;;4926849;29;20209;-70
2024/01/14 10:47:08;;;;;;;4.05;2.95;;;3.70;99.90;;;;;;4934853;29;20295;-70
2024/01/14 10:49:37;;;;;;;4.28;2.50;;;3.70;99.90;;;;;;4923835;29;20691;-70
2024/01/14 10:52:09;;;;;;;2.78;2.58;;;3.80;99.90;;;;;;4925542;29;20255;-70
2024/01/14 10:54:43;;;;;;;2.33;1.75;;;3.80;99.90;;;;;;4917810;29;20216;-70
2024/01/14 10:57:20;;;;;;;5.25;3.53;;;3.80;99.90;;;;;;4916663;29;20225;-70
2024/01/14 10:59:49;;;;;;;5.63;3.15;;;3.80;99.90;;;;;;4924114;29;20202;-70
2024/01/14 11:02:17;;;;;;;2.90;2.70;;;3.90;99.90;;;;;;4922024;29;20241;-70
2024/01/14 11:04:45;;;;;;;4.32;4.03;;;3.90;99.90;;;;;;4920862;29;20221;-70
2024/01/14 11:07:12;;;;;;;3.63;2.55;;;4.00;99.90;;;;;;4914670;29;20209;-70
2024/01/14 11:09:41;;;;;;;1.90;1.80;;;3.90;99.90;;;;;;4915776;29;20234;-70
2024/01/14 11:12:13;;;;;;;5.25;2.78;;;3.90;99.90;;;;;;4922028;29;20268;-70
2024/01/14 11:14:46;;;;;;;2.22;2.05;;;3.90;99.90;;;;;;4922038;29;20216;-70
2024/01/14 11:17:26;;;;;;;5.45;2.20;;;4.00;99.90;;;;;;4924184;29;20663;-70
2024/01/14 11:19:54;;;;;;;5.38;3.10;;;4.00;99.90;;;;;;4919025;29;20216;-71
2024/01/14 11:22:24;;;;;;;3.90;2.28;;;4.00;99.90;;;;;;4920654;29;20800;-71
2024/01/14 11:24:50;;;;;;;3.78;2.33;;;4.10;99.90;;;;;;4917078;29;20272;-71
2024/01/14 11:27:18;;;;;;;3.22;2.97;;;4.10;99.90;;;;;;4915581;29;20216;-71
2024/01/14 11:29:46;;;;;;;7.80;3.20;;;4.10;99.90;;;;;;4922527;29;20233;-71
2024/01/14 11:32:16;;;;;;;2.85;2.65;;;4.10;99.90;;;;;;4928158;29;20711;-71
2024/01/14 11:34:59;;;;;;;3.30;2.85;;;4.20;99.90;;;;;;4922995;29;20570;-71
2024/01/14 11:37:40;;;;;;;3.25;3.05;;;4.20;99.90;;;;;;4916178;29;20224;-71
2024/01/14 11:40:26;;;;;;;14.98;3.80;;;4.20;99.90;;;;;;4935282;29;20245;-71
2024/01/14 11:43:01;;;;;;;3.05;2.85;;;4.20;99.90;;;;;;4935908;29;20217;-71
2024/01/14 11:45:38;;;;;;;6.03;3.70;;;4.20;99.90;;;;;;4915063;29;20291;-71
2024/01/14 11:48:08;;;;;;;4.43;4.03;;;4.30;99.90;;;;;;4923111;29;20208;-71
2024/01/14 11:50:37;;;;;;;4.53;3.13;;;4.30;99.90;;;;;;4913721;29;20268;-71
2024/01/14 11:53:04;;;;;;;3.20;2.75;;;4.30;99.90;;;;;;4914990;29;20210;-71
2024/01/14 11:55:32;;;;;;;7.75;3.97;;;4.30;99.90;;;;;;4922495;29;20591;-71
2024/01/14 11:58:10;;;;;;;5.85;3.40;;;4.30;99.90;;;;;;4916156;29;20213;-70
2024/01/14 12:00:37;;;;;;;2.50;2.30;;;4.40;99.90;;;;;;4913651;29;20301;-71
2024/01/14 12:03:07;;;;;;;3.28;2.97;;;4.40;99.90;;;;;;4915735;29;20213;-71
2024/01/14 12:05:34;;;;;;;4.78;2.95;;;4.40;99.90;;;;;;4919606;29;20214;-70
2024/01/14 12:08:02;;;;;;;4.22;2.35;;;4.40;99.90;;;;;;4921781;29;20220;-70
2024/01/14 12:10:31;;;;;;;2.85;2.75;;;4.40;99.90;;;;;;4922434;29;20232;-70
2024/01/14 12:12:59;;;;;;;4.85;4.43;;;4.40;99.90;;;;;;4924867;29;20216;-70
2024/01/14 12:15:27;;;;;;;6.13;3.00;;;4.40;99.90;;;;;;4922459;29;20221;-70
2024/01/14 12:17:54;;;;;;;9.27;4.32;;;4.40;99.90;;;;;;4923160;29;20302;-71
2024/01/14 12:20:24;;;;;;;3.50;3.20;;;4.40;99.90;;;;;;4924225;29;20308;-70
2024/01/14 12:22:56;;;;;;;2.65;2.53;;;4.40;99.90;;;;;;4916159;29;20210;-70
2024/01/14 12:25:23;;;;;;;4.15;3.78;;;4.40;99.90;;;;;;4918928;29;20225;-71
2024/01/14 12:27:50;;;;;;;5.72;3.40;;;4.40;99.90;;;;;;4923901;29;20668;-72
2024/01/14 12:30:32;;;;;;;4.90;4.60;;;4.40;99.90;;;;;;4917858;29;20222;-71
2024/01/14 12:33:03;;;;;;;15.90;3.72;;;4.40;99.90;;;;;;4924243;29;20222;-70
2024/01/14 12:35:36;;;;;;;16.58;4.00;;;4.40;99.90;;;;;;4916265;29;20219;-70
2024/01/14 12:38:04;;;;;;;11.45;4.47;;;4.40;99.90;;;;;;4918007;29;20217;-70
2024/01/14 12:40:32;;;;;;;5.90;4.38;;;4.40;99.90;;;;;;4914172;29;20737;-71
2024/01/14 12:42:59;;;;;;;8.30;3.75;;;4.50;99.90;;;;;;4923556;29;20205;-71
2024/01/14 12:45:26;;;;;;;6.10;3.38;;;4.50;99.90;;;;;;4917293;29;20212;-71
2024/01/14 12:47:57;;;;;;;10.90;7.57;;;4.50;99.90;;;;;;4922543;29;20300;-71
2024/01/14 12:50:29;;;;;;;4.55;2.65;;;4.50;99.90;;;;;;4919954;29;20289;-71
2024/01/14 12:53:02;;;;;;;9.27;2.80;;;4.50;99.90;;;;;;4916279;29;20206;-71
2024/01/14 12:55:32;;;;;;;2.40;2.30;;;4.50;99.90;;;;;;4922221;29;20213;-70
2024/01/14 12:58:00;;;;;;;1.55;1.48;;;4.50;99.90;;;;;;4918019;29;20588;-71
2024/01/14 13:00:27;;;;;;;1.80;1.70;;;4.60;99.90;;;;;;4914418;29;20210;-71
2024/01/14 13:02:54;;;;;;;3.00;1.88;;;4.60;99.90;;;;;;4922777;29;20625;-71
2024/01/14 13:05:21;;;;;;;5.70;1.55;;;4.60;99.90;;;;;;4920834;29;20725;-71
2024/01/14 13:07:48;;;;;;;4.30;2.55;;;4.60;99.90;;;;;;4924377;29;20212;-70
2024/01/14 13:10:17;;;;;;;1.58;1.40;;;4.60;99.90;;;;;;4916613;29;20233;-71
2024/01/14 13:12:44;;;;;;;1.95;1.85;;;4.60;99.90;;;;;;4914071;29;20220;-71
2024/01/14 13:15:11;;;;;;;4.47;2.10;;;4.60;99.90;;;;;;4921832;29;20213;-71
2024/01/14 13:17:38;;;;;;;1.55;1.45;;;4.60;99.90;;;;;;4918298;29;20210;-70
2024/01/14 13:20:08;;;;;;;1.92;1.73;;;4.50;99.90;;;;;;4926722;29;20273;-71
2024/01/14 13:22:35;;;;;;;2.67;2.58;;;4.50;99.90;;;;;;4924717;28;20234;-71
2024/01/14 13:25:01;;;;;;;2.35;1.40;;;4.50;99.90;;;;;;4928653;29;20211;-71
2024/01/14 13:27:30;;;;;;;1.30;1.30;;;4.50;99.90;;;;;;4921341;29;20204;-71
2024/01/14 13:29:57;;;;;;;4.28;1.05;;;4.40;99.90;;;;;;4923582;29;20257;-71
2024/01/14 13:32:24;;;;;;;1.45;1.45;;;4.40;99.90;;;;;;4922317;29;20234;-70
2024/01/14 13:34:50;;;;;;;4.88;1.60;;;4.40;99.90;;;;;;4923708;29;20278;-71
2024/01/14 13:37:17;;;;;;;2.05;1.13;;;4.40;99.90;;;;;;4920136;29;20210;-69
2024/01/14 13:39:45;;;;;;;1.30;1.27;;;4.40;99.90;;;;;;4918012;29;20581;-69
2024/01/14 13:42:12;;;;;;;1.67;0.82;;;4.40;99.90;;;;;;4918554;29;20229;-70
2024/01/14 13:44:40;;;;;;;7.13;1.90;;;4.40;99.90;;;;;;4923005;29;20312;-70
2024/01/14 13:47:07;;;;;;;2.10;0.82;;;4.40;99.90;;;;;;4917380;29;20226;-70
2024/01/14 13:49:34;;;;;;;0.60;0.60;;;4.30;99.90;;;;;;4917212;29;20234;-70
2024/01/14 13:52:01;;;;;;;1.65;1.00;;;4.40;99.90;;;;;;4917461;29;20236;-70
2024/01/14 13:54:28;;;;;;;0.47;0.47;;;4.30;99.90;;;;;;4916912;29;20292;-70
2024/01/14 13:56:55;;;;;;;0.73;0.73;;;4.30;99.90;;;;;;4916418;29;20638;-70
2024/01/14 13:59:22;;;;;;;2.05;1.45;;;4.30;99.90;;;;;;4926723;29;20213;-71
2024/01/14 14:01:50;;;;;;;0.85;0.85;;;4.30;99.90;;;;;;4920038;29;20230;-70
2024/01/14 14:04:17;;;;;;;0.70;0.70;;;4.40;99.90;;;;;;4933607;29;20221;-70
2024/01/14 14:06:44;;;;;;;1.55;1.45;;;4.30;99.90;;;;;;4923753;29;20221;-71
2024/01/14 14:09:11;;;;;;;3.53;2.50;;;4.30;99.90;;;;;;4926711;29;20859;-71
2024/01/14 14:11:38;;;;;;;8.95;3.55;;;4.20;99.90;;;;;;4920422;29;20254;-70
2024/01/14 14:14:05;;;;;;;2.70;2.50;;;4.20;99.90;;;;;;4920290;29;20300;-70
2024/01/14 14:16:32;;;;;;;19.05;5.70;;;4.10;99.90;;;;;;4926081;29;20672;-70
2024/01/14 14:19:00;;;;;;;5.50;2.50;;;4.10;99.90;;;;;;4920937;29;20218;-71
2024/01/14 14:21:27;;;;;;;0.73;0.73;;;4.10;99.90;;;;;;4918124;29;20241;-70
2024/01/14 14:23:53;;;;;;;4.03;1.00;;;4.00;99.90;;;;;;4918138;29;20224;-70
2024/01/14 14:26:20;;;;;;;1.25;1.25;;;4.00;99.90;;;;;;4918475;29;20205;-71
2024/01/14 14:28:47;;;;;;;1.80;1.70;;;4.00;99.90;;;;;;4922798;29;20213;-70
2024/01/14 14:31:14;;;;;;;3.67;2.53;;;4.10;99.90;;;;;;4916081;29;20244;-70
2024/01/14 14:33:41;;;;;;;2.20;1.85;;;4.10;99.90;;;;;;4923626;29;20213;-70
2024/01/14 14:36:09;;;;;;;5.25;2.30;;;4.10;99.90;;;;;;4925077;29;20206;-70
2024/01/14 14:38:36;;;;;;;2.13;2.13;;;4.10;99.90;;;;;;4929077;29;20212;-70
2024/01/14 14:41:04;;;;;;;3.90;2.40;;;4.10;99.90;;;;;;4929562;29;20221;-71
2024/01/14 14:43:32;;;;;;;3.78;1.52;;;4.00;99.90;;;;;;4923544;29;20218;-71
2024/01/14 14:45:59;;;;;;;2.55;2.08;;;4.00;99.90;;;;;;4919514;29;20213;-70
2024/01/14 14:48:26;;;;;;;2.45;2.45;;;4.00;99.90;;;;;;4920684;29;20214;-70
2024/01/14 14:50:53;;;;;;;1.63;1.50;;;4.00;99.90;;;;;;4920942;29;20237;-72
2024/01/14 14:53:21;;;;;;;2.10;2.05;;;4.00;99.90;;;;;;4920334;29;20692;-70
2024/01/14 14:55:48;;;;;;;1.67;1.67;;;4.00;99.90;;;;;;4922957;29;20594;-70
2024/01/14 14:58:16;;;;;;;3.70;1.63;;;3.90;99.90;;;;;;4925762;29;20304;-70
2024/01/14 15:00:43;;;;;;;1.73;1.63;;;3.90;99.90;;;;;;4919309;29;20751;-70
2024/01/14 15:03:09;;;;;;;1.85;0.95;;;3.90;99.90;;;;;;4916698;29;20212;-70
2024/01/14 15:05:36;;;;;;;1.13;1.13;;;4.00;99.90;;;;;;4921518;29;20220;-70
2024/01/14 15:08:03;;;;;;;1.00;1.00;;;4.00;99.90;;;;;;4921577;29;20205;-70
2024/01/14 15:10:32;;;;;;;1.85;1.73;;;3.90;99.90;;;;;;4917507;29;20306;-70
2024/01/14 15:12:59;;;;;;;2.58;2.05;;;3.90;99.90;;;;;;4917068;29;20272;-71
2024/01/14 15:15:28;;;;;;;1.88;1.77;;;3.90;99.90;;;;;;4919699;29;20217;-71
2024/01/14 15:17:55;;;;;;;4.10;1.52;;;3.90;99.90;;;;;;4923783;29;20241;-70
2024/01/14 15:20:22;;;;;;;2.28;2.08;;;3.90;99.90;;;;;;4924986;29;20801;-70
2024/01/14 15:22:49;;;;;;;2.17;1.92;;;3.90;99.90;;;;;;4922891;29;20217;-71
2024/01/14 15:25:16;;;;;;;4.32;1.98;;;3.90;99.90;;;;;;4919785;29;20216;-71
2024/01/14 15:27:44;;;;;;;2.53;1.60;;;3.90;99.90;;;;;;4915980;29;20227;-71
2024/01/14 15:30:11;;;;;;;5.32;1.77;;;3.90;99.90;;;;;;4919613;29;20323;-70
2024/01/14 15:32:38;;;;;;;1.00;1.00;;;3.90;99.90;;;;;;4922441;29;20212;-71
2024/01/14 15:35:06;;;;;;;1.15;0.98;;;3.90;99.90;;;;;;4917594;29;20214;-70
2024/01/14 15:37:33;;;;;;;1.20;1.20;;;3.90;99.90;;;;;;4917889;29;20257;-70
2024/01/14 15:40:00;;;;;;;1.83;1.73;;;3.90;99.90;;;;;;4924432;29;20580;-71
2024/01/14 15:42:26;;;;;;;2.25;1.33;;;3.90;99.90;;;;;;4918785;29;20312;-71
2024/01/14 15:44:55;;;;;;;3.08;1.20;;;3.90;99.90;;;;;;4925804;29;20241;-71
2024/01/14 15:47:21;;;;;;;1.52;1.42;;;3.90;99.90;;;;;;4918808;29;20358;-72
2024/01/14 15:49:48;;;;;;;5.45;1.17;;;3.90;99.90;;;;;;4914359;29;20560;-71
2024/01/14 15:52:15;;;;;;;0.65;0.65;;;3.90;99.90;;;;;;4914726;29;20788;-72
2024/01/14 15:54:42;;;;;;;0.90;0.90;;;3.90;99.90;;;;;;4914508;29;20209;-71
2024/01/14 15:57:09;;;;;;;1.85;1.45;;;3.90;99.90;;;;;;4919152;29;20675;-71
2024/01/14 15:59:36;;;;;;;1.42;1.08;;;3.90;99.90;;;;;;4922195;29;20580;-71
2024/01/14 16:02:04;;;;;;;1.60;1.45;;;3.90;99.90;;;;;;4918020;29;20622;-71
2024/01/14 16:04:31;;;;;;;1.65;1.55;;;3.90;99.90;;;;;;4918791;29;20243;-71
2024/01/14 16:06:59;;;;;;;1.05;0.90;;;3.90;99.90;;;;;;4920564;29;20204;-71
2024/01/14 16:09:26;;;;;;;1.38;1.27;;;3.90;99.90;;;;;;4917771;29;20679;-71
2024/01/14 16:11:54;;;;;;;1.70;1.30;;;3.90;99.90;;;;;;4915291;29;20260;-71
2024/01/14 16:14:20;;;;;;;1.20;0.95;;;3.80;99.90;;;;;;4914665;29;20275;-71
2024/01/14 16:16:47;;;;;;;5.40;0.85;;;3.80;99.90;;;;;;4918310;29;20216;-72
2024/01/14 16:19:16;;;;;;;0.73;0.73;;;3.80;99.90;;;;;;4925547;29;20207;-72
2024/01/14 16:21:43;;;;;;;1.60;1.50;;;3.80;99.90;;;;;;4918398;29;20250;-72
2024/01/14 16:24:10;;;;;;;1.02;1.02;;;3.80;99.90;;;;;;4925676;29;20211;-71
2024/01/14 16:26:37;;;;;;;1.83;1.73;;;3.80;99.90;;;;;;4917375;29;20215;-71
2024/01/14 16:29:04;;;;;;;2.30;1.90;;;3.80;99.90;;;;;;4916444;29;20208;-70
2024/01/14 16:31:31;;;;;;;2.80;1.48;;;3.80;99.90;;;;;;4917303;29;20237;-70
2024/01/14 16:34:00;;;;;;;1.60;1.60;;;3.80;99.90;;;;;;4921430;29;20697;-70
2024/01/14 16:36:28;;;;;;;1.60;1.50;;;3.80;99.90;;;;;;4913559;29;20277;-70
2024/01/14 16:38:55;;;;;;;2.88;1.75;;;3.80;99.90;;;;;;4913083;29;20259;-71
2024/01/14 16:41:22;;;;;;;2.72;2.03;;;3.80;99.90;;;;;;4911740;29;20236;-70
2024/01/14 16:43:48;;;;;;;1.35;1.25;;;3.80;99.90;;;;;;4914397;29;20231;-70
2024/01/14 16:46:15;;;;;;;2.42;1.45;;;3.80;99.90;;;;;;4914104;29;20268;-71
2024/01/14 16:48:42;;;;;;;3.15;2.10;;;3.80;99.90;;;;;;4920853;29;20241;-70
2024/01/14 16:51:09;;;;;;;5.30;2.08;;;3.80;99.90;;;;;;4920363;29;20235;-70
2024/01/14 16:53:37;;;;;;;2.30;2.10;;;3.80;99.90;;;;;;4914958;29;20213;-70
2024/01/14 16:56:06;;;;;;;2.33;2.22;;;3.80;99.90;;;;;;4916091;29;20221;-70
2024/01/14 16:58:33;;;;;;;1.83;1.35;;;3.80;99.90;;;;;;4918603;29;20214;-70
2024/01/14 17:01:00;;;;;;;3.15;2.63;;;3.80;99.90;;;;;;4920766;29;20650;-72
2024/01/14 17:03:29;;;;;;;1.67;1.52;;;3.80;99.90;;;;;;4917481;29;20215;-71
2024/01/14 17:05:57;;;;;;;2.15;1.30;;;3.80;99.90;;;;;;4925284;29;20684;-71
2024/01/14 17:08:24;;;;;;;1.95;1.55;;;3.80;99.90;;;;;;4926660;29;20215;-72
2024/01/14 17:10:52;;;;;;;3.83;2.30;;;3.80;99.90;;;;;;4918008;29;20270;-72
2024/01/14 17:13:19;;;;;;;1.65;1.33;;;3.70;99.90;;;;;;4927169;29;20231;-71
2024/01/14 17:15:49;;;;;;;2.80;2.70;;;3.70;99.90;;;;;;4923286;29;20684;-72
2024/01/14 17:18:16;;;;;;;2.03;1.92;;;3.70;99.90;;;;;;4920300;29;20216;-72
2024/01/14 17:20:43;;;;;;;2.85;2.65;;;3.70;99.90;;;;;;4922140;29;20231;-71
2024/01/14 17:23:10;;;;;;;2.80;2.55;;;3.70;99.90;;;;;;4927032;29;20216;-71
2024/01/14 17:25:37;;;;;;;3.50;1.85;;;3.70;99.90;;;;;;4922723;29;20726;-71
2024/01/14 17:28:06;;;;;;;1.77;1.60;;;3.60;99.90;;;;;;4917282;29;20216;-70
2024/01/14 17:30:33;;;;;;;3.60;3.30;;;3.60;99.90;;;;;;4921612;29;20620;-71
2024/01/14 17:33:00;;;;;;;5.53;3.03;;;3.60;99.90;;;;;;4923676;29;20287;-71
2024/01/14 17:35:26;;;;;;;2.55;1.80;;;3.60;99.90;;;;;;4918736;29;20215;-72
2024/01/14 17:37:53;;;;;;;4.10;3.28;;;3.50;99.90;;;;;;4934560;29;20221;-71
2024/01/14 17:40:20;;;;;;;2.28;2.08;;;3.50;99.90;;;;;;4924432;29;20214;-72
2024/01/14 17:42:48;;;;;;;2.67;2.55;;;3.50;99.90;;;;;;4920374;29;20210;-71
2024/01/14 17:45:16;;;;;;;1.90;1.80;;;3.40;99.90;;;;;;4923633;29;20217;-72
2024/01/14 17:47:43;;;;;;;4.15;2.70;;;3.40;99.90;;;;;;4918849;29;20295;-71
2024/01/14 17:50:09;;;;;;;1.85;1.75;;;3.40;99.90;;;;;;4925782;29;20296;-71
2024/01/14 17:52:38;;;;;;;2.10;2.00;;;3.40;99.90;;;;;;4920388;29;20233;-71
2024/01/14 17:55:10;;;;;;;2.65;2.50;;;3.40;99.90;;;;;;4920989;29;20277;-72
2024/01/14 17:57:36;;;;;;;1.80;1.63;;;3.40;99.90;;;;;;4924907;29;20204;-72
2024/01/14 18:00:05;;;;;;;2.03;1.80;;;3.40;99.90;;;;;;4923440;29;20214;-71